createdAt,value
2022-11-17T07:15:46.486Z,-13.26
2022-11-17T07:20:50.075Z,-13.26
2022-11-17T07:25:55.901Z,-13.65
2022-11-17T07:31:02.967Z,-13.11
2022-11-17T07:36:09.449Z,-13.23
2022-11-17T07:41:15.189Z,-13.03
2022-11-17T07:46:20.588Z,-12.82
2022-11-17T07:51:26.683Z,-13.65
2022-11-17T07:56:30.339Z,-13.16
2022-11-17T08:01:35.308Z,-13.36
2022-11-17T08:06:38.950Z,-12.73
2022-11-17T08:12:00.615Z,-12.82
2022-11-17T08:17:05.708Z,-12.83
2022-11-17T08:22:09.304Z,-12.88
2022-11-17T08:27:15.375Z,-13.07
2022-11-17T08:32:20.432Z,-12.84
2022-11-17T08:37:24.146Z,-12.76
2022-11-17T08:42:27.739Z,-12.68
2022-11-17T08:47:32.755Z,-12.76
2022-11-17T08:52:36.565Z,-12.77
2022-11-17T08:57:40.244Z,-12.69
2022-11-17T09:02:45.990Z,-12.78
2022-11-17T09:07:49.716Z,-12.81
2022-11-17T09:12:57.038Z,-13.03
2022-11-17T09:18:03.120Z,-12.96
2022-11-17T09:23:07.060Z,-12.99
2022-11-17T09:28:10.718Z,-12.67
2022-11-17T09:33:15.706Z,-13.40
2022-11-17T09:38:19.381Z,-12.58
2022-11-17T09:43:30.072Z,-12.45
2022-11-17T09:48:42.573Z,-12.49
2022-11-17T09:53:55.274Z,-12.66
2022-11-17T09:59:05.367Z,-12.59
2022-11-17T10:04:14.239Z,-12.50
2022-11-17T10:09:30.451Z,-12.44
2022-11-17T10:14:40.659Z,-12.38
2022-11-17T10:19:48.319Z,-12.30
2022-11-17T10:24:57.904Z,-13.77
2022-11-17T10:30:03.730Z,-12.80
2022-11-17T10:35:19.384Z,-13.12
2022-11-17T10:40:26.056Z,-13.29
2022-11-17T10:45:30.409Z,-12.37
2022-11-17T10:50:35.697Z,-12.56
2022-11-17T10:55:39.923Z,-12.27
2022-11-17T11:00:45.712Z,-12.25
2022-11-17T11:05:59.225Z,-12.25
2022-11-17T11:11:07.667Z,-12.32
2022-11-17T11:16:13.673Z,-12.32
2022-11-17T11:21:31.660Z,-12.36
2022-11-17T11:26:51.863Z,-12.36
2022-11-17T11:32:10.708Z,-12.67
2022-11-17T11:37:17.318Z,-12.73
2022-11-17T11:42:37.937Z,-12.44
2022-11-17T11:47:54.099Z,-12.46
2022-11-17T11:53:05.535Z,-13.09
2022-11-17T11:58:16.444Z,-13.27
2022-11-17T12:03:26.373Z,-13.15
2022-11-17T12:08:42.183Z,-12.92
2022-11-17T12:14:02.186Z,-12.33
2022-11-17T12:19:45.086Z,-12.45
2022-11-17T12:24:50.347Z,-12.43
2022-11-17T12:29:54.041Z,-12.48
2022-11-17T12:35:25.692Z,-12.46
2022-11-17T12:40:47.770Z,-12.56
2022-11-17T12:46:07.888Z,-12.64
2022-11-17T12:51:23.336Z,-12.50
2022-11-17T12:56:51.775Z,-12.48
2022-11-17T13:02:05.563Z,-12.41
2022-11-17T13:07:19.794Z,-13.14
2022-11-17T13:12:26.070Z,-12.42
2022-11-17T13:17:32.810Z,-12.73
2022-11-17T13:22:41.618Z,-12.37
2022-11-17T13:27:53.145Z,-12.55
2022-11-17T13:33:04.092Z,-13.20
2022-11-17T13:38:19.494Z,-12.47
2022-11-17T13:43:45.621Z,-12.54
2022-11-17T13:48:51.170Z,-12.61
2022-11-17T13:53:57.231Z,-13.60
2022-11-17T13:59:05.071Z,-12.66
2022-11-17T14:04:20.127Z,-12.68
2022-11-17T14:09:25.368Z,-13.39
2022-11-17T14:14:37.948Z,-13.56
2022-11-17T14:19:43.831Z,-13.66
2022-11-17T14:24:47.875Z,-12.82
2022-11-17T14:29:52.865Z,-12.83
2022-11-17T14:34:56.651Z,-12.94
2022-11-17T14:40:05.137Z,-13.33
2022-11-17T14:45:14.312Z,-13.34
2022-11-17T14:50:19.364Z,-13.06
2022-11-17T14:55:23.119Z,-12.87
2022-11-17T15:00:28.445Z,-13.15
2022-11-17T15:05:32.070Z,-13.06
2022-11-17T15:10:38.009Z,-13.29
2022-11-17T15:15:43.072Z,-13.21
2022-11-17T15:20:47.282Z,-13.43
2022-11-17T15:25:51.155Z,-13.14
2022-11-17T15:30:56.574Z,-13.11
2022-11-17T15:36:04.412Z,-14.22
2022-11-17T15:41:09.396Z,-13.28
2022-11-17T15:46:19.543Z,-13.30
2022-11-17T15:51:25.189Z,-14.09
2022-11-17T15:56:31.322Z,-14.85
2022-11-17T16:01:37.817Z,-13.33
2022-11-17T16:06:42.884Z,-13.26
2022-11-17T16:11:46.617Z,-13.67
2022-11-17T16:16:51.729Z,-13.38
2022-11-17T16:21:55.576Z,-13.42
2022-11-17T16:26:59.265Z,-13.69
2022-11-17T16:32:04.541Z,-13.28
2022-11-17T16:37:08.527Z,-13.31
2022-11-17T16:42:12.283Z,-14.81
2022-11-17T16:47:17.519Z,-13.40
2022-11-17T16:52:20.970Z,-13.53
2022-11-17T16:57:47.852Z,-13.52
2022-11-17T17:02:53.885Z,-14.02
2022-11-17T17:07:57.840Z,-13.57
2022-11-17T17:13:01.574Z,-14.27
2022-11-17T17:18:06.761Z,-13.62
2022-11-17T17:23:10.192Z,-13.71
2022-11-17T17:28:14.005Z,-14.10
2022-11-17T17:33:19.163Z,-13.71
2022-11-17T17:38:22.607Z,-13.85
2022-11-17T17:43:26.294Z,-14.67
2022-11-17T17:48:31.921Z,-14.22
2022-11-17T17:53:41.934Z,-13.76
2022-11-17T17:58:48.035Z,-14.79
2022-11-17T18:04:00.885Z,-13.99
2022-11-17T18:09:24.426Z,-15.28
2022-11-17T18:14:28.324Z,-13.19
2022-11-17T18:19:36.270Z,-13.20
2022-11-17T18:24:42.176Z,-13.44
2022-11-17T18:29:45.802Z,-13.68
2022-11-17T18:35:02.227Z,-13.78
2022-11-17T18:40:12.819Z,-13.71
2022-11-17T18:45:16.523Z,-13.72
2022-11-17T18:50:57.848Z,-13.77
2022-11-17T18:56:03.774Z,-13.77
2022-11-17T19:01:09.247Z,-13.77
2022-11-17T19:06:16.424Z,-14.45
2022-11-17T19:11:23.064Z,-13.88
2022-11-17T19:16:27.584Z,-13.90
2022-11-17T19:21:35.084Z,-13.90
2022-11-17T19:26:38.714Z,-14.00
2022-11-17T19:31:42.639Z,-14.35
2022-11-17T19:36:47.759Z,-14.02
2022-11-17T19:41:54.529Z,-14.62
2022-11-17T19:46:58.190Z,-14.12
2022-11-17T19:52:12.391Z,-14.62
2022-11-17T19:57:16.177Z,-15.86
2022-11-17T20:02:19.855Z,-14.33
2022-11-17T20:07:27.920Z,-14.57
2022-11-17T20:12:34.227Z,-14.61
2022-11-17T20:17:37.823Z,-14.70
2022-11-17T20:22:48.627Z,-14.81
2022-11-17T20:27:52.602Z,-14.78
2022-11-17T20:33:00.541Z,-15.02
2022-11-17T20:38:07.316Z,-15.17
2022-11-17T20:43:12.649Z,-14.86
2022-11-17T20:48:16.615Z,-14.87
2022-11-17T20:53:30.581Z,-16.08
2022-11-17T20:58:38.633Z,-14.76
2022-11-17T21:03:42.593Z,-14.87
2022-11-17T21:08:47.826Z,-15.59
2022-11-17T21:13:52.708Z,-15.21
2022-11-17T21:18:56.619Z,-15.03
2022-11-17T21:24:04.996Z,-15.08
2022-11-17T21:29:08.695Z,-15.29
2022-11-17T21:34:15.450Z,-15.12
2022-11-17T21:39:20.882Z,-15.13
2022-11-17T21:44:27.868Z,-15.14
2022-11-17T21:49:31.793Z,-15.17
2022-11-17T21:54:37.101Z,-15.61
2022-11-17T21:59:41.275Z,-15.77
2022-11-17T22:04:45.093Z,-15.26
2022-11-17T22:09:52.297Z,-15.28
2022-11-17T22:14:55.848Z,-15.32
2022-11-17T22:19:59.461Z,-15.17
2022-11-17T22:25:29.962Z,-15.25
2022-11-17T22:30:31.087Z,-15.34
2022-11-17T22:35:38.443Z,-15.33
2022-11-17T22:40:46.008Z,-15.20
